Strona główna
METAR-TAF:

METAR-TAF

Lotnisko :

Tweed New Haven Regional Airport

New Haven, Connecticut, Stany Zjednoczone

Szerokość geograficzna: 41-15-50N, Długość geograficzna: 072-53-14W, wysokość: 4 m

Aktualna obserwacja pogody

Raport powstał 58 minut temu, godzina 16:53 UTC
Wiatr 7 kt od południowo-południowy zachód w porywach dochodzący do 15 kt
Temperatura 27°C
Wilgotność 45%
Ciśnienie 1012 hPa
Widzialność: 16.1 km
Mało chmury na wysokości 5000 ft

METAR: KHVN 241653Z 20007G15KT 10SM FEW050 27/14 A2987 RMK AO2 SLP115 T02670139

czas: 13:51 (17:51 UTC)


TAF: brakujący

Obserwacja i prognoza pogody dla ponad 4000 lotnisk (raport METAR i TAF).

Dostępne stacje oznaczono żółtymi i czerwonymi punktami na mapie.

Najedź kursorem aby zobaczyć nazwę stacji.

Kliknij aby zobaczyć obserwacje i prognozy pogody.

Aby zmienić mapę: kliknij na zielony przycisk z czarnym krzyżykiem, aby powiększyć; na zielony przycisk z myślnikiem, aby pomniejszyć; na zielone strzałki, aby przejść do map sąsiednich.


METAR-TAF: